»·PEaware :: ASA1591 KPSP-KSFO

ASA1591 :: KPSP-KSFO

FLIGHT INFORMATION

Flight Status: Arrived
Operator:
Alaska Airlines
More flights by this operator :: More flights under this callsign
Pilot: Brad Z. (13827)
Aircraft: AIRBUS A320
(A320)
More flights by this aircraft type
Origin: KPSP Palm Springs Intl
United States
Destination: KSFO San Francisco Intl
United States
More flights between these airports :: More routes between these airports
Route: +CATH1 PSP V386 PMD AVE MAKRS SERFR SERFR3
File this flight plan on PilotEdge
Remarks:
Altitude:
(Current/Filed)
360ft
Speed:
(Current/Filed)
541kts
Departed: 09-May-18 04:23 PM
Arrived: 09-May-18 05:33 PM
Distance/Time
Traveled:
365nm/1:10
Distance/Time
To Go:
Arrived

Flight Plot

Page will automatically refresh every two minutes.

Flight plan parsing failed; only flown route is shown


Map Options




Map Legend


Flown Route
Filed Route
Departure Airport
Arrival Airport
Navaid (VOR, NDB)
Fix

Horizontal Profiles

Position Reports

Time Latitude Longitude Heading Altitude Ground
Speed
09-May-18 16:02 33.823418 -116.505900 245 491ft 0kts
09-May-18 16:03 33.823418 -116.505900 245 491ft 0kts
09-May-18 16:04 33.823418 -116.505900 245 491ft 0kts
09-May-18 16:05 33.823418 -116.505900 245 491ft 0kts
09-May-18 16:06 33.823418 -116.505900 245 491ft 0kts
09-May-18 16:07 33.823418 -116.505900 245 491ft 0kts
09-May-18 16:08 33.823418 -116.505900 245 491ft 0kts
09-May-18 16:09 33.823418 -116.505900 245 491ft 0kts
09-May-18 16:10 33.823418 -116.505900 245 491ft 0kts
09-May-18 16:11 33.823418 -116.505900 245 491ft 0kts
09-May-18 16:12 33.823418 -116.505900 245 491ft 0kts
09-May-18 16:13 33.823418 -116.505900 245 491ft 0kts
09-May-18 16:14 33.823420 -116.505896 245 491ft 0kts
09-May-18 16:15 33.823818 -116.505431 164 491ft 2kts
09-May-18 16:16 33.823981 -116.505537 143 491ft 0kts
09-May-18 16:17 33.823981 -116.505536 143 491ft 0kts
09-May-18 16:18 33.823970 -116.505527 143 491ft 1kts
09-May-18 16:19 33.822601 -116.503377 148 491ft 16kts
09-May-18 16:20 33.818579 -116.499782 140 491ft 4kts
09-May-18 16:21 33.818494 -116.499021 90 491ft 1kts
09-May-18 16:22 33.819234 -116.498383 324 491ft 5kts
09-May-18 16:23 33.842814 -116.519755 319 1273ft 164kts
09-May-18 16:24 33.882598 -116.551304 4 2905ft 205kts
09-May-18 16:25 33.920793 -116.501052 109 4422ft 271kts
09-May-18 16:26 33.870410 -116.431484 122 7403ft 283kts
09-May-18 16:27 33.834211 -116.345667 116 10208ft 293kts
09-May-18 16:28 33.798717 -116.249222 93 11895ft 345kts
09-May-18 16:29 33.855818 -116.162027 16 14153ft 367kts
09-May-18 16:30 33.951912 -116.191029 310 16411ft 382kts
09-May-18 16:31 33.997083 -116.307998 293 18555ft 392kts
09-May-18 16:32 34.042576 -116.429511 294 20554ft 401kts
09-May-18 16:33 34.088218 -116.553654 294 22370ft 409kts
09-May-18 16:34 34.134565 -116.679638 294 23238ft 411kts
09-May-18 16:35 34.180969 -116.806510 294 23312ft 412kts
09-May-18 16:36 34.227210 -116.933366 294 23838ft 416kts
09-May-18 16:37 34.274050 -117.062256 294 25402ft 423kts
09-May-18 16:38 34.321705 -117.194005 293 26782ft 430kts
09-May-18 16:39 34.369844 -117.327621 294 28029ft 437kts
09-May-18 16:40 34.418517 -117.463357 294 29198ft 443kts
09-May-18 16:41 34.467898 -117.601539 293 30291ft 447kts
09-May-18 16:42 34.516619 -117.738661 293 31768ft 440kts
09-May-18 16:43 34.564800 -117.874624 293 33024ft 436kts
09-May-18 16:44 34.612160 -118.009034 293 34211ft 431kts
09-May-18 16:45 34.670075 -118.135697 303 35053ft 431kts
09-May-18 16:46 34.736342 -118.256668 302 35882ft 428kts
09-May-18 16:47 34.801705 -118.377633 303 36200ft 428kts
09-May-18 16:48 34.866966 -118.498659 302 36236ft 428kts
09-May-18 16:49 34.932147 -118.619966 302 36272ft 427kts
09-May-18 16:50 34.996945 -118.740947 302 36293ft 427kts
09-May-18 16:51 35.061657 -118.862203 302 36280ft 427kts
09-May-18 16:52 35.126592 -118.984332 302 36237ft 428kts
09-May-18 16:53 35.191148 -119.106101 302 36175ft 426kts
09-May-18 16:54 35.255347 -119.227652 302 36123ft 426kts
09-May-18 16:55 35.319589 -119.349720 302 36077ft 425kts
09-May-18 16:56 35.383346 -119.471268 302 36084ft 425kts
09-May-18 16:57 35.447265 -119.593615 302 36166ft 425kts
09-May-18 16:58 35.510985 -119.715912 302 36155ft 426kts
09-May-18 16:59 35.574510 -119.838316 302 36164ft 425kts
09-May-18 17:00 35.636933 -119.961740 296 36158ft 424kts
09-May-18 17:01 35.659601 -120.103664 277 36106ft 428kts
09-May-18 17:02 35.673631 -120.249197 278 36172ft 427kts
09-May-18 17:03 35.699498 -120.390280 295 36175ft 424kts
09-May-18 17:04 35.750729 -120.520633 296 36176ft 423kts
09-May-18 17:05 35.800390 -120.652080 296 36060ft 420kts
09-May-18 17:06 35.849978 -120.782573 296 34987ft 423kts
09-May-18 17:07 35.899710 -120.914273 296 33999ft 426kts
09-May-18 17:08 35.949835 -121.047459 296 33006ft 428kts
09-May-18 17:09 35.999993 -121.181381 296 32016ft 432kts
09-May-18 17:10 36.050576 -121.316635 296 31021ft 432kts
09-May-18 17:11 36.134782 -121.417525 327 30034ft 429kts
09-May-18 17:12 36.235507 -121.494785 325 28598ft 422kts
09-May-18 17:13 36.333338 -121.571657 326 26231ft 410kts
09-May-18 17:14 36.428268 -121.646274 325 23925ft 399kts
09-May-18 17:15 36.520049 -121.718518 325 22031ft 381kts
09-May-18 17:16 36.608657 -121.788695 325 20058ft 372kts
09-May-18 17:17 36.695089 -121.857204 326 18162ft 365kts
09-May-18 17:18 36.786454 -121.907754 346 16261ft 362kts
09-May-18 17:19 36.884342 -121.933842 346 14460ft 357kts
09-May-18 17:20 36.978960 -121.963255 342 12622ft 346kts
09-May-18 17:21 37.069399 -121.998899 342 11202ft 322kts
09-May-18 17:22 37.150768 -122.030697 342 9882ft 297kts
09-May-18 17:23 37.228886 -122.061318 342 7741ft 289kts
09-May-18 17:24 37.304891 -122.091193 342 6215ft 283kts
09-May-18 17:25 37.372936 -122.118429 342 5252ft 246kts
09-May-18 17:26 37.439091 -122.144420 341 3561ft 244kts
09-May-18 17:27 37.500005 -122.164187 346 3164ft 203kts
09-May-18 17:28 37.544326 -122.197724 296 2855ft 185kts
09-May-18 17:29 37.567540 -122.253184 297 1886ft 163kts
09-May-18 17:30 37.586241 -122.297643 294 1113ft 128kts
09-May-18 17:31 37.601648 -122.334424 296 475ft 117kts
09-May-18 17:32 37.616692 -122.369998 292 38ft 102kts
09-May-18 17:33 37.619858 -122.378903 243 27ft 0kts
09-May-18 17:34 37.619519 -122.379524 230 27ft 5kts
09-May-18 17:35 37.617554 -122.379452 190 27ft 8kts
09-May-18 17:36 37.617544 -122.380375 279 27ft 0kts
09-May-18 17:37 37.617544 -122.380375 279 27ft 0kts

Navigation Log

Ident Type
Flight plan parsing failed, navigation log unavailable